Terminal Aerodrome Forecast
Issued by NWS

Home | Current Version | Previous Version | Text Only | Print | Product List | Glossary Off
Versions: 1 2 3 4 5 6 7 8 9 10 11 12 13 14 15 16 17 18 19

457
FTUS43 KIWX 021732
TAFSBN
TAF
KSBN 021732Z 0218/0318 28011KT P6SM VCSH OVC025
      TEMPO 0218/0219 P6SM -DZ OVC015
     FM031300 27007KT P6SM OVC015
     FM031700 27007KT P6SM OVC025=

USA.gov is the U.S. government's official web portal to all federal, state and local government web resources and services.